Time;durP1;ratioP1;P1;durP2;ratioP2;P2;SDS_P1;SDS_P2;PMS_P1;PMS_P2;Temp;Humidity;BMP_temperature;BMP_pressure;BME280_temperature;BME280_humidity;BME280_pressure;Samples;Min_cycle;Max_cycle;Signal;HPM_P1;HPM_P2
2022/02/16 00:00:09;;;;;;;51.40;44.08;;;24.20;99.90;;;;;;4197353;28;20041;-73
2022/02/16 00:02:17;;;;;;;56.58;47.97;;;24.20;99.90;;;;;;4197120;28;20394;-75
2022/02/16 00:04:22;;;;;;;61.80;48.90;;;24.20;99.90;;;;;;4197599;28;20395;-72
2022/02/16 00:06:31;;;;;;;57.40;48.72;;;24.20;99.90;;;;;;4197153;28;20060;-72
2022/02/16 00:08:36;;;;;;;51.85;46.25;;;24.20;99.90;;;;;;4197139;28;20049;-73
2022/02/16 00:10:40;;;;;;;54.35;45.42;;;24.20;99.90;;;;;;4197063;28;20650;-73
2022/02/16 00:12:51;;;;;;;49.58;43.67;;;24.20;99.90;;;;;;4211869;28;20542;-74
2022/02/16 00:14:55;;;;;;;48.15;42.83;;;24.20;99.90;;;;;;4197464;28;20044;-74
2022/02/16 00:17:00;;;;;;;49.50;44.22;;;24.20;99.90;;;;;;4190302;28;20544;-73
2022/02/16 00:19:04;;;;;;;49.65;44.28;;;24.20;99.90;;;;;;4177375;28;20095;-74
2022/02/16 00:21:09;;;;;;;47.45;42.40;;;24.20;99.90;;;;;;4211018;28;20060;-74
2022/02/16 00:23:13;;;;;;;45.97;41.05;;;24.20;99.90;;;;;;4206441;28;20154;-73
2022/02/16 00:25:19;;;;;;;45.67;40.72;;;24.20;99.90;;;;;;4195486;28;20562;-74
2022/02/16 00:27:23;;;;;;;45.03;40.13;;;24.20;99.90;;;;;;4195022;28;20035;-74
2022/02/16 00:29:28;;;;;;;48.67;43.08;;;24.20;99.90;;;;;;4195915;28;20041;-72
2022/02/16 00:31:37;;;;;;;46.90;41.28;;;24.20;99.90;;;;;;4193128;28;20080;-73
2022/02/16 00:33:41;;;;;;;45.75;40.53;;;24.30;99.90;;;;;;4199175;28;20590;-72
2022/02/16 00:35:48;;;;;;;45.95;39.00;;;24.30;99.90;;;;;;4197632;28;20049;-73
2022/02/16 00:37:57;;;;;;;43.28;36.67;;;24.30;99.90;;;;;;4198067;28;20051;-73
2022/02/16 00:40:02;;;;;;;45.13;38.05;;;24.20;99.90;;;;;;4197647;28;20059;-74
2022/02/16 00:42:08;;;;;;;43.75;37.55;;;24.30;99.90;;;;;;4197645;28;20045;-73
2022/02/16 00:44:18;;;;;;;43.85;39.25;;;24.30;99.90;;;;;;4177744;28;20049;-74
2022/02/16 00:46:22;;;;;;;40.42;36.03;;;24.30;99.90;;;;;;4196132;28;20048;-73
2022/02/16 00:48:27;;;;;;;40.58;36.30;;;24.30;99.90;;;;;;4196924;28;20032;-73
2022/02/16 00:50:34;;;;;;;39.88;35.55;;;24.20;99.90;;;;;;4196774;28;20041;-75
2022/02/16 00:52:40;;;;;;;37.72;33.15;;;24.20;99.90;;;;;;4198924;28;20040;-76
2022/02/16 00:54:44;;;;;;;37.95;32.88;;;24.20;99.90;;;;;;4181522;28;20348;-75
2022/02/16 00:56:51;;;;;;;40.10;33.67;;;24.20;99.90;;;;;;4195955;28;20119;-73
2022/02/16 00:59:01;;;;;;;41.22;33.50;;;24.30;99.90;;;;;;4194243;28;20624;-73
2022/02/16 01:01:07;;;;;;;38.15;32.90;;;24.20;99.90;;;;;;4196464;28;20662;-73
2022/02/16 01:03:12;;;;;;;38.70;32.22;;;24.30;99.90;;;;;;4195656;28;20044;-72
2022/02/16 01:05:19;;;;;;;37.13;31.70;;;24.30;99.90;;;;;;4180598;28;20055;-73
2022/02/16 01:07:24;;;;;;;36.58;30.77;;;24.30;99.90;;;;;;4172506;28;20045;-72
2022/02/16 01:09:30;;;;;;;33.10;29.52;;;24.20;99.90;;;;;;4171715;28;20056;-71
2022/02/16 01:11:35;;;;;;;35.08;31.15;;;24.30;99.90;;;;;;4151165;28;20412;-73
2022/02/16 01:13:42;;;;;;;35.25;31.55;;;24.30;99.90;;;;;;4171674;28;20052;-73
2022/02/16 01:15:52;;;;;;;33.38;29.83;;;24.30;99.90;;;;;;4185693;28;20487;-72
2022/02/16 01:17:57;;;;;;;36.10;30.35;;;24.20;99.90;;;;;;4166943;28;20037;-74
2022/02/16 01:20:07;;;;;;;43.38;38.95;;;24.30;99.90;;;;;;4171289;28;20044;-74
2022/02/16 01:22:17;;;;;;;52.97;47.42;;;24.40;99.90;;;;;;4172105;28;20475;-74
2022/02/16 01:24:22;;;;;;;47.08;42.17;;;24.40;99.90;;;;;;4187083;28;20033;-74
2022/02/16 01:26:27;;;;;;;37.60;33.30;;;24.30;99.90;;;;;;4150533;28;20081;-74
2022/02/16 01:28:41;;;;;;;39.47;29.88;;;24.40;99.90;;;;;;4170018;28;20041;-74
2022/02/16 01:30:47;;;;;;;29.27;24.13;;;24.40;99.90;;;;;;4177409;28;20045;-74
2022/02/16 01:32:56;;;;;;;26.38;21.42;;;24.40;99.90;;;;;;4163040;28;20041;-74
2022/02/16 01:35:09;;;;;;;26.98;23.40;;;24.40;99.90;;;;;;4162901;28;20488;-74
2022/02/16 01:37:14;;;;;;;22.08;19.42;;;24.40;99.90;;;;;;4180035;28;20614;-76
2022/02/16 01:39:19;;;;;;;23.88;19.50;;;24.40;99.90;;;;;;4162953;28;20112;-73
2022/02/16 01:41:26;;;;;;;22.33;18.88;;;24.40;99.90;;;;;;4162432;28;20533;-73
2022/02/16 01:43:37;;;;;;;21.77;17.50;;;24.30;99.90;;;;;;4147143;28;20136;-75
2022/02/16 01:45:42;;;;;;;20.70;16.80;;;24.40;99.90;;;;;;4162906;28;20045;-74
2022/02/16 01:47:57;;;;;;;20.23;15.93;;;24.40;99.90;;;;;;4175245;28;20047;-74
2022/02/16 01:50:02;;;;;;;18.90;14.68;;;24.40;99.90;;;;;;4161514;28;20037;-73
2022/02/16 01:52:09;;;;;;;18.67;13.73;;;24.40;99.90;;;;;;4159779;28;20148;-73
2022/02/16 01:54:19;;;;;;;18.25;13.90;;;24.40;99.90;;;;;;4161070;28;20061;-73
2022/02/16 01:56:24;;;;;;;14.93;13.25;;;24.40;99.90;;;;;;4151455;28;20555;-75
2022/02/16 01:58:29;;;;;;;17.90;12.90;;;24.50;99.90;;;;;;4173294;28;20451;-74
2022/02/16 02:00:48;;;;;;;16.95;13.13;;;24.50;99.90;;;;;;4185803;28;20099;-75
2022/02/16 02:02:55;;;;;;;17.05;13.27;;;24.50;99.90;;;;;;4165425;28;20068;-75
2022/02/16 02:05:12;;;;;;;14.10;12.35;;;24.50;99.90;;;;;;4144936;28;20065;-75
2022/02/16 02:07:21;;;;;;;16.40;12.68;;;24.60;99.90;;;;;;4171198;28;20080;-74
2022/02/16 02:09:27;;;;;;;15.98;13.07;;;24.60;99.90;;;;;;4193250;28;20561;-77
2022/02/16 02:11:33;;;;;;;15.38;13.02;;;24.60;99.90;;;;;;4197000;28;20041;-74
2022/02/16 02:13:58;;;;;;;;;;;24.70;99.90;;;;;;4197543;28;20056;-74
2022/02/16 02:16:14;;;;;;;14.98;13.35;;;24.60;99.90;;;;;;4196739;28;19920;-75
2022/02/16 02:18:21;;;;;;;15.02;13.43;;;24.70;99.90;;;;;;4193461;28;20041;-74
2022/02/16 02:20:34;;;;;;;14.85;13.02;;;24.70;99.90;;;;;;4178198;28;20079;-74
2022/02/16 02:22:39;;;;;;;17.35;14.38;;;24.70;99.90;;;;;;4194801;28;20071;-74
2022/02/16 02:24:44;;;;;;;18.33;14.77;;;24.70;99.90;;;;;;4179410;28;20052;-74
2022/02/16 02:26:49;;;;;;;16.42;14.48;;;24.70;99.90;;;;;;4196990;28;20052;-74
2022/02/16 02:28:53;;;;;;;16.70;14.90;;;24.80;99.90;;;;;;4199743;28;20049;-75
2022/02/16 02:31:00;;;;;;;18.83;14.32;;;24.80;99.90;;;;;;4204153;28;20048;-74
2022/02/16 02:33:07;;;;;;;19.85;15.35;;;24.80;99.90;;;;;;4195693;28;20040;-75
2022/02/16 02:35:14;;;;;;;17.80;15.18;;;24.80;99.90;;;;;;4204735;28;20143;-74
2022/02/16 02:37:19;;;;;;;19.73;14.98;;;24.80;99.90;;;;;;4195795;28;20040;-74
2022/02/16 02:39:26;;;;;;;16.83;14.68;;;24.80;99.90;;;;;;4186423;28;20041;-74
2022/02/16 02:41:31;;;;;;;16.15;13.68;;;24.80;99.90;;;;;;4192353;28;20045;-75
2022/02/16 02:43:42;;;;;;;16.85;13.13;;;24.80;99.90;;;;;;4185838;28;20047;-75
2022/02/16 02:45:48;;;;;;;14.77;12.70;;;24.80;99.90;;;;;;4210541;28;20430;-74
2022/02/16 02:47:54;;;;;;;18.13;12.05;;;24.80;99.90;;;;;;3317062;28;10000900;-73
2022/02/16 02:50:05;;;;;;;14.90;11.32;;;24.80;99.90;;;;;;4176424;28;20495;-74
2022/02/16 02:52:12;;;;;;;15.93;12.23;;;24.80;99.90;;;;;;4180536;28;20132;-74
2022/02/16 02:54:17;;;;;;;15.82;12.10;;;24.80;99.90;;;;;;4192918;28;20387;-75
2022/02/16 02:56:22;;;;;;;15.10;10.65;;;24.80;99.90;;;;;;4179649;28;20041;-74
2022/02/16 02:58:32;;;;;;;16.83;11.80;;;24.80;99.90;;;;;;4195989;28;20127;-74
2022/02/16 03:00:36;;;;;;;14.95;11.73;;;24.80;99.90;;;;;;4212767;28;20078;-74
2022/02/16 03:02:44;;;;;;;16.05;11.25;;;24.80;99.90;;;;;;4195788;28;20139;-75
2022/02/16 03:04:51;;;;;;;14.23;11.00;;;24.90;99.90;;;;;;4195650;28;20044;-75
2022/02/16 03:06:56;;;;;;;14.27;10.65;;;24.90;99.90;;;;;;4196293;28;20056;-74
2022/02/16 03:09:01;;;;;;;15.40;11.25;;;24.90;99.90;;;;;;4196605;28;20045;-76
2022/02/16 03:11:06;;;;;;;12.75;10.15;;;24.90;99.90;;;;;;4213296;28;20051;-74
2022/02/16 03:13:21;;;;;;;13.75;10.68;;;24.90;99.90;;;;;;4193496;28;20427;-74
2022/02/16 03:15:35;;;;;;;13.13;10.90;;;24.90;99.90;;;;;;4197518;28;20050;-74
2022/02/16 03:17:43;;;;;;;13.32;11.10;;;25.00;99.90;;;;;;4178611;28;20040;-74
2022/02/16 03:19:47;;;;;;;15.88;11.52;;;25.00;99.90;;;;;;4163734;28;20053;-74
2022/02/16 03:21:52;;;;;;;14.20;11.50;;;25.00;99.90;;;;;;4196588;28;20044;-74
2022/02/16 03:23:59;;;;;;;16.90;11.27;;;25.00;99.90;;;;;;4207538;28;20044;-74
2022/02/16 03:26:05;;;;;;;18.40;11.73;;;25.10;99.90;;;;;;4179267;28;20054;-74
2022/02/16 03:28:12;;;;;;;14.73;12.45;;;25.10;99.90;;;;;;4181315;28;20056;-75
2022/02/16 03:30:27;;;;;;;15.45;12.18;;;25.20;99.90;;;;;;4210749;28;20127;-74
2022/02/16 03:32:52;;;;;;;15.68;11.85;;;25.20;99.90;;;;;;4186990;28;20045;-74
2022/02/16 03:34:57;;;;;;;14.52;11.20;;;25.20;99.90;;;;;;4177148;28;20049;-75
2022/02/16 03:37:02;;;;;;;15.25;12.30;;;25.30;99.90;;;;;;4160652;28;20084;-75
2022/02/16 03:39:08;;;;;;;15.07;11.43;;;25.30;99.90;;;;;;4201836;28;20062;-76
2022/02/16 03:41:13;;;;;;;15.23;12.48;;;25.30;99.90;;;;;;4195017;28;20045;-76
2022/02/16 03:43:20;;;;;;;16.33;12.00;;;25.40;99.90;;;;;;4193823;28;20056;-76
2022/02/16 03:45:26;;;;;;;15.90;12.20;;;25.40;99.90;;;;;;4177749;28;20045;-76
2022/02/16 03:47:33;;;;;;;16.80;12.45;;;25.40;99.90;;;;;;4194153;28;20097;-75
2022/02/16 03:49:41;;;;;;;16.70;11.80;;;25.40;99.90;;;;;;4193764;28;20052;-74
2022/02/16 03:51:47;;;;;;;16.38;13.07;;;25.40;99.90;;;;;;4193488;28;20057;-74
2022/02/16 03:53:51;;;;;;;13.68;11.70;;;25.40;99.90;;;;;;4193573;28;20063;-74
2022/02/16 03:55:59;;;;;;;18.08;11.70;;;25.40;99.90;;;;;;4193744;28;20052;-74
2022/02/16 03:58:05;;;;;;;15.90;11.27;;;25.30;99.90;;;;;;4210490;28;20040;-74
2022/02/16 04:00:11;;;;;;;14.48;11.38;;;25.30;99.90;;;;;;4209915;28;20520;-74
2022/02/16 04:02:24;;;;;;;16.58;11.32;;;25.30;99.90;;;;;;4210190;28;20078;-76
2022/02/16 04:04:29;;;;;;;12.73;10.95;;;25.40;99.90;;;;;;4193785;28;20037;-74
2022/02/16 04:06:34;;;;;;;13.35;10.65;;;25.40;99.90;;;;;;4196490;28;20061;-75
2022/02/16 04:08:42;;;;;;;15.98;11.00;;;25.40;99.90;;;;;;4196053;28;20551;-73
2022/02/16 04:10:46;;;;;;;14.55;11.18;;;25.40;99.90;;;;;;4212793;28;20036;-74
2022/02/16 04:12:55;;;;;;;14.05;11.02;;;25.40;99.90;;;;;;4213335;28;20055;-74
2022/02/16 04:15:09;;;;;;;16.00;11.10;;;25.30;99.90;;;;;;4196767;28;20051;-74
2022/02/16 04:17:17;;;;;;;15.40;11.18;;;25.30;99.90;;;;;;4180810;28;20083;-74
2022/02/16 04:19:23;;;;;;;14.38;11.45;;;25.30;99.90;;;;;;4187844;28;20504;-74
2022/02/16 04:21:30;;;;;;;14.65;11.32;;;25.30;99.90;;;;;;4195394;28;20095;-73
2022/02/16 04:23:35;;;;;;;12.98;10.68;;;25.40;99.90;;;;;;4197378;28;20648;-73
2022/02/16 04:25:41;;;;;;;16.08;11.13;;;25.40;99.90;;;;;;4210718;28;20130;-75
2022/02/16 04:27:49;;;;;;;12.35;10.65;;;25.50;99.90;;;;;;4188020;28;20072;-75
2022/02/16 04:29:59;;;;;;;15.88;10.60;;;25.50;99.90;;;;;;4195320;28;20056;-73
2022/02/16 04:32:05;;;;;;;14.23;10.57;;;25.50;99.90;;;;;;4204428;28;20121;-74
2022/02/16 04:34:10;;;;;;;15.10;11.43;;;25.60;99.90;;;;;;4187432;28;20047;-75
2022/02/16 04:36:25;;;;;;;14.10;10.20;;;25.60;99.90;;;;;;4178079;28;20060;-75
2022/02/16 04:38:34;;;;;;;15.05;10.88;;;25.70;99.90;;;;;;4195811;28;20114;-75
2022/02/16 04:40:42;;;;;;;13.38;10.82;;;25.70;99.90;;;;;;4189662;28;20457;-76
2022/02/16 04:42:46;;;;;;;13.02;10.13;;;25.70;99.90;;;;;;4187783;28;20041;-77
2022/02/16 04:44:52;;;;;;;12.30;9.70;;;25.70;99.90;;;;;;4195901;28;20260;-76
2022/02/16 04:46:58;;;;;;;12.90;9.40;;;25.70;99.90;;;;;;4195241;28;20033;-75
2022/02/16 04:49:04;;;;;;;14.35;10.50;;;25.70;99.90;;;;;;4184953;28;20103;-74
2022/02/16 04:51:11;;;;;;;13.63;9.43;;;25.80;99.90;;;;;;4174508;28;20057;-74
2022/02/16 04:53:18;;;;;;;13.05;9.70;;;25.70;99.90;;;;;;4194318;28;20098;-74
2022/02/16 04:55:24;;;;;;;14.73;9.98;;;25.80;99.90;;;;;;4184431;28;20044;-73
2022/02/16 04:57:33;;;;;;;13.70;10.48;;;25.80;99.90;;;;;;4173890;28;20060;-73
2022/02/16 04:59:40;;;;;;;12.65;9.70;;;25.70;99.90;;;;;;4195549;28;20036;-73
2022/02/16 05:01:45;;;;;;;12.82;10.27;;;25.60;99.90;;;;;;4195832;28;20075;-73
2022/02/16 05:03:50;;;;;;;14.02;10.02;;;25.70;99.90;;;;;;4195954;28;20044;-73
2022/02/16 05:05:57;;;;;;;14.00;9.95;;;25.70;99.90;;;;;;4197288;28;20048;-73
2022/02/16 05:08:07;;;;;;;13.70;10.30;;;25.70;99.90;;;;;;4195826;28;20044;-72
2022/02/16 05:10:12;;;;;;;12.15;10.55;;;25.70;99.90;;;;;;4195435;28;20159;-75
2022/02/16 05:12:19;;;;;;;13.10;9.98;;;25.70;99.90;;;;;;4195494;28;20530;-75
2022/02/16 05:14:23;;;;;;;14.02;9.43;;;25.70;99.90;;;;;;4195717;28;20053;-72
2022/02/16 05:16:30;;;;;;;13.95;9.80;;;25.70;99.90;;;;;;4179390;28;20049;-73
2022/02/16 05:18:38;;;;;;;12.07;10.00;;;25.70;99.90;;;;;;4195404;28;20075;-74
2022/02/16 05:20:47;;;;;;;14.30;9.98;;;25.80;99.90;;;;;;4194771;28;20052;-75
2022/02/16 05:22:52;;;;;;;15.65;11.20;;;25.70;99.90;;;;;;4194828;28;20052;-74
2022/02/16 05:25:02;;;;;;;13.50;11.70;;;25.70;99.90;;;;;;4179045;28;20562;-74
2022/02/16 05:27:07;;;;;;;15.15;10.57;;;25.70;99.90;;;;;;4168840;28;20049;-74
2022/02/16 05:29:12;;;;;;;14.25;11.25;;;25.60;99.90;;;;;;4195303;28;20488;-74
2022/02/16 05:31:29;;;;;;;14.63;10.88;;;25.60;99.90;;;;;;4193131;28;20507;-74
2022/02/16 05:33:36;;;;;;;13.43;11.68;;;25.60;99.90;;;;;;4178953;28;20099;-74
2022/02/16 05:35:46;;;;;;;14.32;10.40;;;25.50;99.90;;;;;;4176341;28;20072;-75
2022/02/16 05:37:53;;;;;;;13.55;11.00;;;25.50;99.90;;;;;;4194354;28;20033;-73
2022/02/16 05:40:01;;;;;;;12.85;9.75;;;25.60;99.90;;;;;;4190965;28;20048;-74
2022/02/16 05:42:08;;;;;;;14.38;10.75;;;25.50;99.90;;;;;;4191497;28;20041;-72
2022/02/16 05:44:29;;;;;;;14.00;10.20;;;25.50;99.90;;;;;;4180462;28;20072;-73
2022/02/16 05:46:34;;;;;;;16.83;10.35;;;25.50;99.90;;;;;;4178373;28;20120;-74
2022/02/16 05:48:39;;;;;;;12.73;10.20;;;25.40;99.90;;;;;;4196574;28;20048;-73
2022/02/16 05:50:50;;;;;;;14.68;10.43;;;25.40;99.90;;;;;;4195492;28;20041;-73
2022/02/16 05:52:55;;;;;;;15.70;10.88;;;25.40;99.90;;;;;;4175547;28;20132;-73
2022/02/16 05:54:59;;;;;;;14.82;10.88;;;25.40;99.90;;;;;;4195886;28;20148;-73
2022/02/16 05:57:14;;;;;;;13.75;11.07;;;25.40;99.90;;;;;;4195373;28;20068;-73
2022/02/16 05:59:21;;;;;;;13.50;11.13;;;25.40;99.90;;;;;;4129734;28;20054;-72
2022/02/16 06:01:27;;;;;;;15.07;11.13;;;25.40;99.90;;;;;;4211352;28;20055;-73
2022/02/16 06:03:38;;;;;;;13.85;10.65;;;25.40;99.90;;;;;;4194656;28;20071;-73
2022/02/16 06:05:44;;;;;;;13.75;11.25;;;25.40;99.90;;;;;;4195858;28;20070;-73
2022/02/16 06:07:50;;;;;;;13.15;11.05;;;25.40;99.90;;;;;;4166281;28;20523;-74
2022/02/16 06:09:59;;;;;;;15.45;11.05;;;25.20;99.90;;;;;;4161421;28;20129;-73
2022/02/16 06:12:05;;;;;;;13.48;10.95;;;25.20;99.90;;;;;;4167712;28;20041;-74
2022/02/16 06:14:10;;;;;;;15.63;11.38;;;25.10;99.90;;;;;;4182636;28;20084;-73
2022/02/16 06:16:23;;;;;;;14.30;11.30;;;25.30;99.90;;;;;;4161497;28;20056;-74
2022/02/16 06:18:28;;;;;;;15.45;10.93;;;25.30;99.90;;;;;;4192766;28;20049;-73
2022/02/16 06:20:32;;;;;;;17.77;11.52;;;25.40;99.90;;;;;;4161128;28;20132;-71
2022/02/16 06:22:41;;;;;;;17.48;11.60;;;25.40;99.90;;;;;;4194618;28;20040;-74
2022/02/16 06:24:46;;;;;;;16.90;12.32;;;25.40;99.90;;;;;;4194380;28;20042;-74
2022/02/16 06:26:51;;;;;;;14.98;12.38;;;25.30;99.90;;;;;;4161538;28;20053;-73
2022/02/16 06:29:00;;;;;;;15.38;12.55;;;25.20;99.90;;;;;;4160677;28;20073;-73
2022/02/16 06:31:15;;;;;;;16.40;12.05;;;25.00;99.90;;;;;;4160828;28;20037;-76
2022/02/16 06:33:19;;;;;;;15.82;12.20;;;25.00;99.90;;;;;;4160948;28;20045;-74
2022/02/16 06:35:26;;;;;;;16.13;12.55;;;24.90;99.90;;;;;;4133842;28;20140;-73
2022/02/16 06:37:31;;;;;;;17.65;13.25;;;25.00;99.90;;;;;;4161298;28;20056;-74
2022/02/16 06:39:36;;;;;;;15.55;11.70;;;24.90;99.90;;;;;;4167137;28;20045;-73
2022/02/16 06:41:46;;;;;;;16.70;12.65;;;25.00;99.90;;;;;;4160366;28;20052;-74
2022/02/16 06:43:53;;;;;;;15.10;12.25;;;24.80;99.90;;;;;;4178650;28;20053;-75
2022/02/16 06:45:58;;;;;;;17.92;12.68;;;24.50;99.90;;;;;;4174609;28;20467;-73
2022/02/16 06:48:03;;;;;;;14.90;12.38;;;24.40;99.90;;;;;;4170136;28;20666;-74
2022/02/16 06:50:07;;;;;;;16.55;12.30;;;24.40;99.90;;;;;;4154054;28;20049;-74
2022/02/16 06:52:14;;;;;;;15.75;11.85;;;24.40;99.90;;;;;;4160633;28;20132;-75
2022/02/16 06:54:22;;;;;;;16.05;12.15;;;24.50;99.90;;;;;;4160824;28;20068;-74
2022/02/16 06:56:28;;;;;;;16.15;12.65;;;24.50;99.90;;;;;;4161271;28;20049;-74
2022/02/16 06:58:51;;;;;;;16.98;12.05;;;24.60;99.90;;;;;;4175233;28;20068;-74
2022/02/16 07:01:01;;;;;;;15.52;12.65;;;24.60;99.90;;;;;;4172610;28;20048;-74
2022/02/16 07:03:06;;;;;;;15.82;13.23;;;24.50;99.90;;;;;;4171605;28;20045;-74
2022/02/16 07:05:18;;;;;;;17.52;13.25;;;24.50;99.90;;;;;;4160883;28;20412;-75
2022/02/16 07:07:29;;;;;;;19.67;13.13;;;24.50;99.90;;;;;;4192721;28;20531;-75
2022/02/16 07:09:34;;;;;;;23.00;15.40;;;24.60;99.90;;;;;;4195124;28;20415;-73
2022/02/16 07:11:38;;;;;;;19.92;14.38;;;24.60;99.90;;;;;;4165362;28;20072;-75
2022/02/16 07:13:47;;;;;;;19.02;15.32;;;24.50;99.90;;;;;;4193124;28;20135;-76
2022/02/16 07:15:53;;;;;;;24.00;16.15;;;24.50;99.90;;;;;;4178700;28;20537;-75
2022/02/16 07:17:57;;;;;;;19.65;16.15;;;24.40;99.90;;;;;;4163628;28;20051;-74
2022/02/16 07:20:15;;;;;;;20.92;15.75;;;24.30;99.90;;;;;;4210288;28;20067;-75
2022/02/16 07:22:20;;;;;;;19.98;16.77;;;24.20;99.90;;;;;;4210250;28;20387;-73
2022/02/16 07:24:25;;;;;;;18.75;15.38;;;24.10;99.90;;;;;;4177527;28;20049;-74
2022/02/16 07:26:34;;;;;;;19.98;15.02;;;24.10;99.90;;;;;;4176944;28;20037;-74
2022/02/16 07:28:38;;;;;;;17.02;14.20;;;24.10;99.90;;;;;;4177480;28;20437;-77
2022/02/16 07:30:45;;;;;;;18.25;13.43;;;24.20;99.90;;;;;;4177143;28;20059;-74
2022/02/16 07:32:55;;;;;;;16.95;13.13;;;24.30;99.90;;;;;;4160854;28;20073;-74
2022/02/16 07:35:03;;;;;;;15.30;13.07;;;24.40;99.90;;;;;;4177242;28;20458;-73
2022/02/16 07:37:09;;;;;;;15.55;13.60;;;24.50;99.90;;;;;;4194850;28;20467;-73
2022/02/16 07:39:17;;;;;;;16.58;13.02;;;24.70;99.90;;;;;;4177598;28;20077;-73
2022/02/16 07:41:22;;;;;;;14.07;11.90;;;24.70;99.90;;;;;;4179578;28;20196;-73
2022/02/16 07:43:39;;;;;;;15.00;11.98;;;24.50;99.90;;;;;;4196982;28;20421;-72
2022/02/16 07:46:01;;;;;;;15.57;11.27;;;24.70;99.90;;;;;;4197962;28;20114;-72
2022/02/16 07:48:08;;;;;;;13.43;11.45;;;25.00;99.90;;;;;;4179967;28;20077;-73
2022/02/16 07:50:14;;;;;;;12.90;10.90;;;25.00;99.90;;;;;;4195932;28;20115;-73
2022/02/16 07:52:34;;;;;;;14.35;11.32;;;25.10;99.90;;;;;;4193347;28;20121;-73
2022/02/16 07:54:59;;;;;;;11.73;10.50;;;25.10;99.90;;;;;;4197533;28;20048;-72
2022/02/16 07:57:23;;;;;;;11.60;10.30;;;25.00;99.90;;;;;;4196884;28;20544;-74
2022/02/16 07:59:29;;;;;;;12.27;10.43;;;24.80;99.90;;;;;;4195845;28;20645;-74
2022/02/16 08:01:34;;;;;;;11.32;9.93;;;24.70;99.90;;;;;;4180470;28;20119;-74
2022/02/16 08:03:41;;;;;;;11.32;9.82;;;24.60;99.90;;;;;;4195752;28;20063;-73
2022/02/16 08:05:49;;;;;;;12.50;10.15;;;24.80;99.90;;;;;;4163945;28;20053;-75
2022/02/16 08:07:58;;;;;;;11.60;9.38;;;24.70;99.90;;;;;;4162928;28;20047;-75
2022/02/16 08:10:03;;;;;;;13.70;9.82;;;24.80;99.90;;;;;;4179473;28;20040;-74
2022/02/16 08:12:13;;;;;;;11.18;8.82;;;24.70;99.90;;;;;;4179653;28;20507;-74
2022/02/16 08:14:17;;;;;;;11.68;9.15;;;24.60;99.90;;;;;;4179946;28;20067;-74
2022/02/16 08:16:27;;;;;;;16.30;9.68;;;24.60;99.90;;;;;;4179602;28;20064;-74
2022/02/16 08:18:40;;;;;;;9.93;8.55;;;24.80;99.90;;;;;;4179897;28;20524;-74
2022/02/16 08:20:46;;;;;;;13.60;9.27;;;25.00;99.90;;;;;;4179127;28;20148;-75
2022/02/16 08:22:55;;;;;;;10.07;9.07;;;25.10;99.90;;;;;;4195600;28;20045;-74
2022/02/16 08:25:03;;;;;;;11.55;8.82;;;25.20;99.90;;;;;;4179369;28;20145;-74
2022/02/16 08:27:28;;;;;;;12.35;8.10;;;25.30;99.90;;;;;;4197549;28;20123;-74
2022/02/16 08:29:41;;;;;;;10.90;7.80;;;25.30;99.90;;;;;;4179729;28;20491;-74
2022/02/16 08:32:08;;;;;;;10.25;8.80;;;25.30;99.90;;;;;;4160060;28;20524;-74
2022/02/16 08:34:32;;;;;;;12.00;8.73;;;25.20;99.90;;;;;;4182889;28;20094;-74
2022/02/16 08:36:43;;;;;;;11.13;8.75;;;25.10;99.90;;;;;;4180598;28;20044;-74
2022/02/16 08:38:50;;;;;;;11.80;9.02;;;25.10;99.90;;;;;;4174241;28;20048;-75
2022/02/16 08:40:56;;;;;;;11.55;8.73;;;25.10;99.90;;;;;;4189509;28;20114;-74
2022/02/16 08:43:02;;;;;;;11.43;8.52;;;25.10;99.90;;;;;;4179110;28;20094;-75
2022/02/16 08:45:11;;;;;;;10.90;8.95;;;25.20;99.90;;;;;;4196993;28;20042;-75
2022/02/16 08:47:18;;;;;;;12.40;9.82;;;25.20;99.90;;;;;;4180177;28;20045;-74
2022/02/16 08:49:23;;;;;;;12.95;9.38;;;25.20;99.90;;;;;;4197016;28;20509;-75
2022/02/16 08:51:32;;;;;;;14.20;9.90;;;25.20;99.90;;;;;;4179245;28;20160;-75
2022/02/16 08:53:36;;;;;;;15.18;9.75;;;25.30;99.90;;;;;;4196767;28;20074;-75
2022/02/16 08:55:41;;;;;;;14.25;9.00;;;25.30;99.90;;;;;;4180043;28;20127;-74
2022/02/16 08:57:48;;;;;;;9.95;8.73;;;25.00;99.90;;;;;;4197288;28;20123;-73
2022/02/16 08:59:53;;;;;;;13.90;9.40;;;24.90;99.90;;;;;;4178913;28;20041;-75
2022/02/16 09:01:57;;;;;;;12.38;8.48;;;24.90;99.90;;;;;;4182201;28;20045;-74
2022/02/16 09:04:06;;;;;;;12.43;10.18;;;24.80;99.90;;;;;;4196301;28;20053;-76
2022/02/16 09:06:11;;;;;;;13.35;10.05;;;24.90;99.90;;;;;;4196959;28;20552;-76
2022/02/16 09:08:17;;;;;;;14.55;10.07;;;25.00;99.90;;;;;;4176543;28;20045;-76
2022/02/16 09:10:26;;;;;;;13.07;9.65;;;24.80;99.90;;;;;;4163476;28;20053;-78
2022/02/16 09:12:31;;;;;;;13.15;10.93;;;24.70;99.90;;;;;;4180752;28;20048;-75
2022/02/16 09:14:36;;;;;;;10.95;9.65;;;24.90;99.90;;;;;;4172272;28;20047;-75
2022/02/16 09:16:45;;;;;;;11.40;9.15;;;25.00;99.90;;;;;;4160320;28;20142;-77
2022/02/16 09:18:49;;;;;;;10.80;9.10;;;25.10;99.90;;;;;;4146664;28;20054;-76
2022/02/16 09:20:54;;;;;;;11.82;9.35;;;25.10;99.90;;;;;;4179025;28;20133;-77
2022/02/16 09:23:00;;;;;;;15.20;9.50;;;25.10;99.90;;;;;;4174454;28;20052;-77
2022/02/16 09:25:05;;;;;;;12.60;9.23;;;24.90;99.90;;;;;;4181032;28;20076;-74
2022/02/16 09:27:13;;;;;;;14.63;8.98;;;24.90;99.90;;;;;;4180824;28;20092;-77
2022/02/16 09:29:22;;;;;;;10.00;7.43;;;25.00;99.90;;;;;;4166948;28;20041;-76
2022/02/16 09:31:28;;;;;;;9.63;6.90;;;25.00;99.90;;;;;;4193873;28;20052;-76
2022/02/16 09:33:33;;;;;;;9.55;7.60;;;24.90;99.90;;;;;;4190572;28;20659;-76
2022/02/16 09:35:41;;;;;;;9.73;8.25;;;24.90;99.90;;;;;;4180202;28;20666;-75
2022/02/16 09:37:47;;;;;;;9.27;7.75;;;24.90;99.90;;;;;;4179820;28;20048;-74
2022/02/16 09:39:52;;;;;;;10.02;7.90;;;25.00;99.90;;;;;;4190738;28;20043;-76
2022/02/16 09:42:00;;;;;;;9.43;7.30;;;24.90;99.90;;;;;;4190403;28;20037;-75
2022/02/16 09:44:06;;;;;;;11.95;8.48;;;24.90;99.90;;;;;;4174757;28;20139;-74
2022/02/16 09:46:10;;;;;;;9.88;8.38;;;24.90;99.90;;;;;;4178186;28;20051;-75
2022/02/16 09:48:19;;;;;;;10.88;8.23;;;24.90;99.90;;;;;;4163296;28;20474;-75
2022/02/16 09:50:23;;;;;;;10.52;8.45;;;24.90;99.90;;;;;;4190572;28;20463;-75
2022/02/16 09:52:28;;;;;;;10.00;7.80;;;24.80;99.90;;;;;;4171996;28;20497;-75
2022/02/16 09:54:37;;;;;;;8.60;7.22;;;24.90;99.90;;;;;;4166369;28;20065;-76
2022/02/16 09:56:43;;;;;;;9.38;8.45;;;25.00;99.90;;;;;;4162326;28;20532;-75
2022/02/16 09:58:47;;;;;;;10.73;8.73;;;25.00;99.90;;;;;;4178306;28;20060;-75
2022/02/16 10:01:03;;;;;;;9.35;7.85;;;25.00;99.90;;;;;;4178311;28;20045;-76
2022/02/16 10:03:13;;;;;;;9.90;8.38;;;25.00;99.90;;;;;;4177316;28;20692;-74
2022/02/16 10:05:18;;;;;;;9.55;8.15;;;25.00;99.90;;;;;;4160465;28;20809;-78
2022/02/16 10:07:25;;;;;;;9.85;8.45;;;24.90;99.90;;;;;;4154476;28;20080;-76
2022/02/16 10:09:38;;;;;;;10.68;9.48;;;24.90;99.90;;;;;;4161711;28;20088;-76
2022/02/16 10:11:54;;;;;;;12.00;9.75;;;25.00;99.90;;;;;;4163572;28;20058;-75
2022/02/16 10:14:20;;;;;;;11.60;9.73;;;25.00;99.90;;;;;;4171567;28;20041;-73
2022/02/16 10:16:32;;;;;;;10.95;8.30;;;25.10;99.90;;;;;;4174664;28;20061;-74
2022/02/16 10:18:56;;;;;;;9.82;8.65;;;24.90;99.90;;;;;;4177779;28;20057;-74
2022/02/16 10:21:09;;;;;;;9.43;8.48;;;24.90;99.90;;;;;;4192438;28;20573;-76
2022/02/16 10:23:15;;;;;;;10.30;8.68;;;24.80;99.90;;;;;;4161629;28;20507;-73
2022/02/16 10:25:28;;;;;;;12.38;9.07;;;24.70;99.90;;;;;;4169647;28;20111;-74
2022/02/16 10:27:38;;;;;;;16.13;9.52;;;24.80;99.90;;;;;;4177178;28;20044;-74
2022/02/16 10:29:47;;;;;;;12.45;9.18;;;24.90;99.90;;;;;;4175345;28;20116;-72
2022/02/16 10:31:52;;;;;;;13.65;12.07;;;24.80;99.90;;;;;;4192123;28;20051;-74
2022/02/16 10:34:02;;;;;;;12.23;9.75;;;24.70;99.90;;;;;;4194602;28;20059;-75
2022/02/16 10:36:12;;;;;;;10.98;9.50;;;24.50;99.90;;;;;;4188197;28;20044;-75
2022/02/16 10:38:17;;;;;;;10.27;9.05;;;24.40;99.90;;;;;;4195757;28;20099;-74
2022/02/16 10:40:25;;;;;;;10.32;8.75;;;24.40;99.90;;;;;;4178364;28;20049;-73
2022/02/16 10:42:30;;;;;;;9.88;8.88;;;24.50;99.90;;;;;;4195263;28;20139;-74
2022/02/16 10:44:35;;;;;;;11.23;8.85;;;24.60;99.90;;;;;;4194555;28;20045;-74
2022/02/16 10:46:42;;;;;;;13.27;9.05;;;24.70;99.90;;;;;;4187905;28;20136;-73
2022/02/16 10:48:49;;;;;;;11.43;9.38;;;24.80;99.90;;;;;;4176778;28;20068;-73
2022/02/16 10:50:59;;;;;;;13.73;9.80;;;24.80;99.90;;;;;;4192776;28;20129;-75